Time,TemperatureF,DewpointF,PressureIn,WindDirection,WindDirectionDegrees,WindSpeedMPH,WindSpeedGustMPH,Humidity,HourlyPrecipIn,Conditions,Clouds,dailyrainin,SoftwareType,DateUTC
2013-06-05 00:02:00,82.6,69.2,29.91,ESE,112,3.4,3.6,64,0.00,,---,0.00,VWS V14.00,2013-06-05 04:02:00,
2013-06-05 00:04:00,82.6,69.2,29.91,NE,45,4.9,4.9,64,0.00,,---,0.00,VWS V14.00,2013-06-05 04:04:00,
2013-06-05 00:08:00,82.6,69.2,29.91,East,90,6.0,6.0,64,0.00,,---,0.00,VWS V14.00,2013-06-05 04:08:00,
2013-06-05 00:13:00,82.4,69.0,29.91,ENE,68,3.1,3.8,64,0.00,,---,0.00,VWS V14.00,2013-06-05 04:13:00,
2013-06-05 00:14:00,82.4,69.0,29.91,East,90,2.5,3.1,64,0.00,,---,0.00,VWS V14.00,2013-06-05 04:14:00,
2013-06-05 00:20:00,82.2,69.3,29.91,East,90,1.6,2.9,65,0.00,,---,0.00,VWS V14.00,2013-06-05 04:20:00,
2013-06-05 00:25:00,82.2,68.8,29.91,ENE,68,3.4,3.4,64,0.00,,---,0.00,VWS V14.00,2013-06-05 04:25:00,
2013-06-05 00:31:00,82.2,69.3,29.91,ENE,68,3.8,3.8,65,0.00,,---,0.00,VWS V14.00,2013-06-05 04:31:00,
2013-06-05 00:36:00,82.2,69.3,29.91,East,90,2.7,2.7,65,0.00,,---,0.00,VWS V14.00,2013-06-05 04:36:00,
2013-06-05 00:41:00,82.0,69.1,29.91,ENE,68,0.0,2.7,65,0.00,,---,0.00,VWS V14.00,2013-06-05 04:41:00,
2013-06-05 00:47:00,82.0,69.6,29.91,East,90,3.1,4.0,66,0.00,,---,0.00,VWS V14.00,2013-06-05 04:47:00,
2013-06-05 00:53:00,82.0,69.1,29.91,ESE,112,2.7,2.9,65,0.00,,---,0.00,VWS V14.00,2013-06-05 04:53:00,
2013-06-05 00:58:00,82.0,69.6,29.91,East,90,4.0,4.0,66,0.00,,---,0.00,VWS V14.00,2013-06-05 04:58:00,
2013-06-05 01:04:00,82.0,69.6,29.91,East,90,3.4,3.4,66,0.00,,---,0.00,VWS V14.00,2013-06-05 05:04:00,
2013-06-05 01:09:00,82.0,69.6,29.91,East,90,3.1,3.1,66,0.00,,---,0.00,VWS V14.00,2013-06-05 05:09:00,
2013-06-05 01:15:00,81.9,69.8,29.91,SE,135,4.0,5.8,67,0.00,,---,0.00,VWS V14.00,2013-06-05 05:15:00,
2013-06-05 01:20:00,81.9,69.8,29.91,SE,135,5.6,6.0,67,0.00,,---,0.00,VWS V14.00,2013-06-05 05:20:00,
2013-06-05 01:25:00,81.7,69.2,29.91,ENE,68,4.0,6.5,66,0.00,,---,0.00,VWS V14.00,2013-06-05 05:25:00,
2013-06-05 01:30:00,81.7,69.7,29.91,East,90,6.7,6.7,67,0.00,,---,0.00,VWS V14.00,2013-06-05 05:30:00,
2013-06-05 01:35:00,81.7,69.2,29.91,ESE,112,2.7,3.6,66,0.00,,---,0.00,VWS V14.00,2013-06-05 05:35:00,
2013-06-05 01:41:00,81.7,69.7,29.88,SE,135,7.2,7.2,67,0.00,,---,0.00,VWS V14.00,2013-06-05 05:41:00,
2013-06-05 01:46:00,81.5,69.5,29.88,East,90,3.8,6.3,67,0.00,,---,0.00,VWS V14.00,2013-06-05 05:46:00,
2013-06-05 01:52:00,81.5,69.5,29.88,ESE,112,5.6,6.0,67,0.00,,---,0.00,VWS V14.00,2013-06-05 05:52:00,
2013-06-05 01:57:00,81.5,69.5,29.88,ENE,68,6.5,9.0,67,0.00,,---,0.00,VWS V14.00,2013-06-05 05:57:00,
2013-06-05 02:02:00,81.3,69.3,29.88,ESE,112,6.3,6.3,67,0.00,,---,0.00,VWS V14.00,2013-06-05 06:02:00,
2013-06-05 02:08:00,81.3,68.9,29.88,ESE,112,2.5,2.5,66,0.00,,---,0.00,VWS V14.00,2013-06-05 06:08:00,
2013-06-05 02:13:00,81.3,68.9,29.88,SE,135,5.6,5.6,66,0.00,,---,0.00,VWS V14.00,2013-06-05 06:13:00,
2013-06-05 02:19:00,81.3,69.3,29.88,East,90,3.1,4.3,67,0.00,,---,0.00,VWS V14.00,2013-06-05 06:19:00,
2013-06-05 02:24:00,81.1,69.2,29.88,ESE,112,3.4,3.4,67,0.00,,---,0.00,VWS V14.00,2013-06-05 06:24:00,
2013-06-05 02:29:00,81.1,69.2,29.88,ESE,112,4.0,4.0,67,0.00,,---,0.00,VWS V14.00,2013-06-05 06:29:00,
2013-06-05 02:34:00,81.1,69.6,29.88,ESE,112,4.0,4.0,68,0.00,,---,0.00,VWS V14.00,2013-06-05 06:34:00,
2013-06-05 02:40:00,81.1,69.6,29.88,East,90,7.8,8.5,68,0.00,,---,0.00,VWS V14.00,2013-06-05 06:40:00,
2013-06-05 02:45:00,81.0,69.0,29.88,ESE,112,4.0,4.7,67,0.00,,---,0.00,VWS V14.00,2013-06-05 06:45:00,
2013-06-05 02:50:00,81.0,69.4,29.88,SE,135,3.1,3.4,68,0.00,,---,0.00,VWS V14.00,2013-06-05 06:50:00,
2013-06-05 02:56:00,81.0,69.4,29.85,East,90,3.8,3.8,68,0.00,,---,0.00,VWS V14.00,2013-06-05 06:56:00,
2013-06-05 03:01:00,80.8,69.2,29.85,ENE,68,3.6,3.6,68,0.00,,---,0.00,VWS V14.00,2013-06-05 07:01:00,
2013-06-05 03:06:00,80.8,69.2,29.85,SSE,158,3.1,5.8,68,0.00,,---,0.00,VWS V14.00,2013-06-05 07:06:00,
2013-06-05 03:12:00,80.8,69.7,29.85,SE,135,2.9,2.9,69,0.00,,---,0.00,VWS V14.00,2013-06-05 07:12:00,
2013-06-05 03:18:00,80.6,69.5,29.85,SE,135,7.2,7.2,69,0.00,,---,0.00,VWS V14.00,2013-06-05 07:18:00,
2013-06-05 03:23:00,80.6,70.3,29.85,SSE,158,4.0,4.0,71,0.00,,---,0.00,VWS V14.00,2013-06-05 07:23:00,
2013-06-05 03:28:00,80.6,69.9,29.85,ENE,68,4.3,5.6,70,0.00,,---,0.00,VWS V14.00,2013-06-05 07:28:00,
2013-06-05 03:33:00,80.4,69.8,29.85,ENE,68,4.3,4.3,70,0.00,,---,0.00,VWS V14.00,2013-06-05 07:33:00,
2013-06-05 03:38:00,80.4,69.8,29.85,ESE,112,4.9,4.9,70,0.00,,---,0.00,VWS V14.00,2013-06-05 07:38:00,
2013-06-05 03:43:00,80.4,70.2,29.85,SE,135,1.1,3.1,71,0.00,,---,0.00,VWS V14.00,2013-06-05 07:43:00,
2013-06-05 03:48:00,80.4,69.8,29.85,SE,135,4.3,5.8,70,0.00,,---,0.00,VWS V14.00,2013-06-05 07:48:00,
2013-06-05 03:53:00,80.4,69.8,29.85,ESE,112,5.4,5.4,70,0.00,,---,0.00,VWS V14.00,2013-06-05 07:53:00,
2013-06-05 03:58:00,80.4,70.2,29.85,SE,135,5.4,5.4,71,0.00,,---,0.00,VWS V14.00,2013-06-05 07:58:00,
2013-06-05 04:03:00,80.4,70.2,29.85,SE,135,6.3,6.3,71,0.00,,---,0.00,VWS V14.00,2013-06-05 08:03:00,
2013-06-05 04:08:00,80.2,69.6,29.85,SE,135,6.7,6.7,70,0.00,,---,0.00,VWS V14.00,2013-06-05 08:08:00,
2013-06-05 04:13:00,80.2,70.0,29.85,ESE,112,4.3,4.3,71,0.00,,---,0.00,VWS V14.00,2013-06-05 08:13:00,
2013-06-05 04:18:00,80.2,69.6,29.85,ESE,112,3.8,3.8,70,0.00,,---,0.00,VWS V14.00,2013-06-05 08:18:00,
2013-06-05 04:23:00,80.2,70.4,29.85,East,90,2.9,4.0,72,0.00,,---,0.00,VWS V14.00,2013-06-05 08:23:00,
2013-06-05 04:28:00,80.2,70.0,29.85,ESE,112,2.5,3.8,71,0.00,,---,0.00,VWS V14.00,2013-06-05 08:28:00,
2013-06-05 04:33:00,80.2,69.6,29.85,ESE,112,5.6,5.6,70,0.00,,---,0.00,VWS V14.00,2013-06-05 08:33:00,
2013-06-05 04:38:00,80.2,70.0,29.85,ENE,68,1.6,7.4,71,0.00,,---,0.00,VWS V14.00,2013-06-05 08:38:00,
2013-06-05 04:43:00,80.2,70.0,29.85,ESE,112,4.3,6.7,71,0.00,,---,0.00,VWS V14.00,2013-06-05 08:43:00,
2013-06-05 04:48:00,80.2,69.6,29.85,SE,135,3.8,3.8,70,0.00,,---,0.00,VWS V14.00,2013-06-05 08:48:00,
2013-06-05 04:53:00,80.1,69.4,29.85,SE,135,3.6,3.6,70,0.00,,---,0.00,VWS V14.00,2013-06-05 08:53:00,
2013-06-05 04:58:00,80.1,69.8,29.85,SE,135,4.3,5.4,71,0.00,,---,0.00,VWS V14.00,2013-06-05 08:58:00,
2013-06-05 05:03:00,80.1,69.8,29.85,SSE,158,3.6,3.6,71,0.00,,---,0.00,VWS V14.00,2013-06-05 09:03:00,
2013-06-05 05:08:00,80.1,70.2,29.85,SSE,158,6.5,6.5,72,0.00,,---,0.00,VWS V14.00,2013-06-05 09:08:00,
2013-06-05 05:13:00,79.9,69.2,29.85,SE,135,7.2,7.2,70,0.00,,---,0.00,VWS V14.00,2013-06-05 09:13:00,
2013-06-05 05:18:00,79.9,69.2,29.85,ESE,112,8.1,8.1,70,0.00,,---,0.00,VWS V14.00,2013-06-05 09:18:00,
2013-06-05 05:23:00,79.9,69.2,29.82,ESE,112,5.6,6.5,70,0.00,,---,0.00,VWS V14.00,2013-06-05 09:23:00,
2013-06-05 05:28:00,79.9,69.2,29.82,ENE,68,3.1,5.6,70,0.00,,---,0.00,VWS V14.00,2013-06-05 09:28:00,
2013-06-05 05:33:00,79.9,68.8,29.82,SE,135,5.8,5.8,69,0.00,,---,0.00,VWS V14.00,2013-06-05 09:33:00,
2013-06-05 05:38:00,79.7,69.1,29.82,ESE,112,3.8,3.8,70,0.00,,---,0.00,VWS V14.00,2013-06-05 09:38:00,
2013-06-05 05:43:00,79.7,69.1,29.82,ESE,112,6.0,6.0,70,0.00,,---,0.00,VWS V14.00,2013-06-05 09:43:00,
2013-06-05 05:48:00,79.7,69.5,29.82,South,180,2.5,5.4,71,0.00,,---,0.00,VWS V14.00,2013-06-05 09:48:00,
2013-06-05 05:53:00,79.7,69.1,29.82,ESE,112,3.6,3.6,70,0.00,,---,0.00,VWS V14.00,2013-06-05 09:53:00,
2013-06-05 05:58:00,79.7,69.5,29.82,East,90,2.5,6.3,71,0.00,,---,0.00,VWS V14.00,2013-06-05 09:58:00,
2013-06-05 06:03:00,79.7,69.1,29.82,SSE,158,5.4,5.4,70,0.00,,---,0.00,VWS V14.00,2013-06-05 10:03:00,
2013-06-05 06:08:00,79.7,69.5,29.82,SSE,158,3.1,4.3,71,0.00,,---,0.00,VWS V14.00,2013-06-05 10:08:00,
2013-06-05 06:13:00,79.7,69.9,29.82,SE,135,4.3,4.3,72,0.00,,---,0.00,VWS V14.00,2013-06-05 10:13:00,
2013-06-05 06:18:00,79.7,69.5,29.82,SE,135,4.9,5.4,71,0.00,,---,0.00,VWS V14.00,2013-06-05 10:18:00,
2013-06-05 06:23:00,79.5,69.3,29.85,South,180,5.6,5.6,71,0.00,,---,0.00,VWS V14.00,2013-06-05 10:23:00,
2013-06-05 06:28:00,79.5,69.3,29.85,ESE,112,3.8,3.8,71,0.00,,---,0.00,VWS V14.00,2013-06-05 10:28:00,
2013-06-05 06:33:00,79.5,69.7,29.85,East,90,4.9,4.9,72,0.00,,---,0.00,VWS V14.00,2013-06-05 10:33:00,
2013-06-05 06:38:00,79.5,69.3,29.85,SSE,158,4.0,4.0,71,0.00,,---,0.00,VWS V14.00,2013-06-05 10:38:00,
2013-06-05 06:43:00,79.5,69.3,29.85,East,90,2.9,4.3,71,0.00,,---,0.00,VWS V14.00,2013-06-05 10:43:00,
2013-06-05 06:48:00,79.5,69.3,29.85,SSE,158,3.4,4.7,71,0.00,,---,0.00,VWS V14.00,2013-06-05 10:48:00,
2013-06-05 06:53:00,79.5,68.9,29.85,ESE,112,3.6,3.6,70,0.00,,---,0.00,VWS V14.00,2013-06-05 10:53:00,
2013-06-05 06:58:00,79.5,69.3,29.85,East,90,4.3,5.8,71,0.00,,---,0.00,VWS V14.00,2013-06-05 10:58:00,
2013-06-05 07:03:00,79.5,69.3,29.85,North,0,3.1,3.4,71,0.00,,---,0.00,VWS V14.00,2013-06-05 11:03:00,
2013-06-05 07:08:00,79.5,69.7,29.85,SSW,202,6.3,6.3,72,0.00,,---,0.00,VWS V14.00,2013-06-05 11:08:00,
2013-06-05 07:13:00,79.5,69.7,29.85,SE,135,2.5,2.7,72,0.00,,---,0.00,VWS V14.00,2013-06-05 11:13:00,
2013-06-05 07:18:00,79.5,69.7,29.85,East,90,1.6,1.6,72,0.00,,---,0.00,VWS V14.00,2013-06-05 11:18:00,
2013-06-05 07:23:00,79.5,69.3,29.85,ENE,68,3.8,3.8,71,0.00,,---,0.00,VWS V14.00,2013-06-05 11:23:00,
2013-06-05 07:28:00,79.5,69.3,29.85,East,90,4.3,6.0,71,0.00,,---,0.00,VWS V14.00,2013-06-05 11:28:00,
2013-06-05 07:33:00,79.7,69.5,29.85,ENE,68,3.8,4.9,71,0.00,,---,0.00,VWS V14.00,2013-06-05 11:33:00,
2013-06-05 07:38:00,79.7,69.5,29.85,ESE,112,2.0,3.6,71,0.00,,---,0.00,VWS V14.00,2013-06-05 11:38:00,
2013-06-05 07:43:00,79.7,69.5,29.85,NE,45,4.9,4.9,71,0.00,,---,0.00,VWS V14.00,2013-06-05 11:43:00,
2013-06-05 07:48:00,79.9,70.1,29.85,East,90,2.0,3.6,72,0.00,,---,0.00,VWS V14.00,2013-06-05 11:48:00,
2013-06-05 07:54:00,80.1,70.2,29.85,SE,135,2.7,4.3,72,0.00,,---,0.00,VWS V14.00,2013-06-05 11:54:00,
2013-06-05 07:59:00,80.1,70.2,29.85,ESE,112,5.8,5.8,72,0.00,,---,0.00,VWS V14.00,2013-06-05 11:59:00,
2013-06-05 08:04:00,80.2,70.4,29.85,SSE,158,4.7,4.7,72,0.00,,---,0.00,VWS V14.00,2013-06-05 12:04:00,
2013-06-05 08:09:00,80.2,70.4,29.85,SE,135,2.7,4.3,72,0.00,,---,0.00,VWS V14.00,2013-06-05 12:09:00,
2013-06-05 08:14:00,80.4,71.0,29.85,SSE,158,3.4,3.4,73,0.00,,---,0.00,VWS V14.00,2013-06-05 12:14:00,
2013-06-05 08:20:00,80.4,70.6,29.85,East,90,2.5,3.1,72,0.00,,---,0.00,VWS V14.00,2013-06-05 12:20:00,
2013-06-05 08:25:00,80.6,70.8,29.85,ESE,112,2.5,4.0,72,0.00,,---,0.00,VWS V14.00,2013-06-05 12:25:00,
2013-06-05 08:30:00,80.8,70.9,29.85,ESE,112,3.4,3.4,72,0.00,,---,0.00,VWS V14.00,2013-06-05 12:30:00,
2013-06-05 08:35:00,80.8,70.9,29.85,ESE,112,3.6,6.0,72,0.00,,---,0.00,VWS V14.00,2013-06-05 12:35:00,
2013-06-05 08:40:00,80.8,70.5,29.88,East,90,5.4,5.4,71,0.00,,---,0.00,VWS V14.00,2013-06-05 12:40:00,
2013-06-05 08:45:00,81.0,70.7,29.88,SE,135,3.8,3.8,71,0.00,,---,0.00,VWS V14.00,2013-06-05 12:45:00,
2013-06-05 08:50:00,81.0,70.7,29.88,SE,135,2.7,2.7,71,0.00,,---,0.00,VWS V14.00,2013-06-05 12:50:00,
2013-06-05 08:55:00,81.1,70.8,29.88,SSE,158,2.7,3.6,71,0.00,,---,0.00,VWS V14.00,2013-06-05 12:55:00,
2013-06-05 09:00:00,81.1,70.4,29.88,ESE,112,6.3,6.3,70,0.00,,---,0.00,VWS V14.00,2013-06-05 13:00:00,
2013-06-05 09:05:00,81.1,70.4,29.88,ENE,68,4.3,4.3,70,0.00,,---,0.00,VWS V14.00,2013-06-05 13:05:00,
2013-06-05 09:10:00,81.1,70.4,29.88,East,90,2.9,3.6,70,0.00,,---,0.00,VWS V14.00,2013-06-05 13:10:00,
2013-06-05 09:15:00,81.1,70.4,29.88,East,90,3.8,3.8,70,0.00,,---,0.00,VWS V14.00,2013-06-05 13:15:00,
2013-06-05 09:20:00,81.3,70.6,29.88,East,90,3.1,3.4,70,0.00,,---,0.00,VWS V14.00,2013-06-05 13:20:00,
2013-06-05 09:25:00,81.3,70.6,29.88,ENE,68,3.8,4.3,70,0.00,,---,0.00,VWS V14.00,2013-06-05 13:25:00,
2013-06-05 09:30:00,81.5,70.4,29.88,ENE,68,2.0,2.7,69,0.00,,---,0.00,VWS V14.00,2013-06-05 13:30:00,
2013-06-05 09:35:00,81.5,70.4,29.88,ESE,112,4.0,4.0,69,0.00,,---,0.00,VWS V14.00,2013-06-05 13:35:00,
2013-06-05 09:40:00,81.7,70.5,29.88,ESE,112,2.9,3.6,69,0.00,,---,0.00,VWS V14.00,2013-06-05 13:40:00,
2013-06-05 09:45:00,81.7,70.5,29.88,ESE,112,3.6,4.0,69,0.00,,---,0.00,VWS V14.00,2013-06-05 13:45:00,
2013-06-05 09:50:00,81.9,70.7,29.88,SE,135,3.4,3.4,69,0.00,,---,0.00,VWS V14.00,2013-06-05 13:50:00,
2013-06-05 09:55:00,82.0,70.9,29.88,ENE,68,5.4,5.4,69,0.00,,---,0.00,VWS V14.00,2013-06-05 13:55:00,
2013-06-05 10:00:00,82.4,70.8,29.88,ESE,112,3.4,5.6,68,0.00,,---,0.00,VWS V14.00,2013-06-05 14:00:00,
2013-06-05 10:05:00,82.6,70.1,29.88,SE,135,8.5,8.5,66,0.00,,---,0.00,VWS V14.00,2013-06-05 14:05:00,
2013-06-05 10:10:00,82.9,70.9,29.88,SSE,158,6.0,6.0,67,0.00,,---,0.00,VWS V14.00,2013-06-05 14:10:00,
2013-06-05 10:15:00,83.3,71.2,29.88,East,90,4.3,4.3,67,0.00,,---,0.00,VWS V14.00,2013-06-05 14:15:00,
2013-06-05 10:20:00,83.7,70.7,29.88,SE,135,5.8,5.8,65,0.00,,---,0.00,VWS V14.00,2013-06-05 14:20:00,
2013-06-05 10:25:00,84.0,71.0,29.88,East,90,3.8,10.1,65,0.00,,---,0.00,VWS V14.00,2013-06-05 14:25:00,
2013-06-05 10:30:00,84.4,70.4,29.88,East,90,7.2,7.6,63,0.00,,---,0.00,VWS V14.00,2013-06-05 14:30:00,
2013-06-05 10:35:00,84.6,70.6,29.88,ESE,112,5.8,5.8,63,0.00,,---,0.00,VWS V14.00,2013-06-05 14:35:00,
2013-06-05 10:40:00,84.7,70.8,29.91,SE,135,4.0,4.0,63,0.00,,---,0.00,VWS V14.00,2013-06-05 14:40:00,
2013-06-05 10:45:00,85.1,70.6,29.91,SE,135,2.2,2.2,62,0.00,,---,0.00,VWS V14.00,2013-06-05 14:45:00,
2013-06-05 10:50:00,85.3,71.7,29.91,ESE,112,8.5,8.5,64,0.00,,---,0.00,VWS V14.00,2013-06-05 14:50:00,
2013-06-05 10:55:00,85.5,71.0,29.88,ESE,112,6.5,7.2,62,0.00,,---,0.00,VWS V14.00,2013-06-05 14:55:00,
2013-06-05 11:00:00,85.6,70.7,29.88,East,90,6.7,7.6,61,0.00,,---,0.00,VWS V14.00,2013-06-05 15:00:00,
2013-06-05 11:05:00,85.6,70.2,29.88,ESE,112,5.8,8.5,60,0.00,,---,0.00,VWS V14.00,2013-06-05 15:05:00,
2013-06-05 11:10:00,85.6,70.2,29.91,SSE,158,6.0,6.0,60,0.00,,---,0.00,VWS V14.00,2013-06-05 15:10:00,
2013-06-05 11:15:00,85.8,70.3,29.91,ESE,112,5.8,6.3,60,0.00,,---,0.00,VWS V14.00,2013-06-05 15:15:00,
2013-06-05 11:20:00,85.8,69.8,29.91,SSE,158,3.1,3.6,59,0.00,,---,0.00,VWS V14.00,2013-06-05 15:20:00,
2013-06-05 11:25:00,85.8,69.3,29.91,SE,135,5.4,6.3,58,0.00,,---,0.00,VWS V14.00,2013-06-05 15:25:00,
2013-06-05 11:30:00,86.0,70.5,29.91,North,0,3.1,5.6,60,0.00,,---,0.00,VWS V14.00,2013-06-05 15:30:00,
2013-06-05 11:35:00,86.0,70.0,29.91,SE,135,3.8,3.8,59,0.00,,---,0.00,VWS V14.00,2013-06-05 15:35:00,
2013-06-05 11:40:00,86.2,70.7,29.91,ENE,68,4.0,4.0,60,0.00,,---,0.00,VWS V14.00,2013-06-05 15:40:00,
2013-06-05 11:45:00,86.2,71.2,29.91,SE,135,4.7,4.7,61,0.00,,---,0.00,VWS V14.00,2013-06-05 15:45:00,
2013-06-05 11:51:00,86.4,70.3,29.91,SSE,158,6.3,6.3,59,0.00,,---,0.00,VWS V14.00,2013-06-05 15:51:00,
2013-06-05 11:57:00,86.4,70.3,29.91,SE,135,3.4,8.7,59,0.00,,---,0.00,VWS V14.00,2013-06-05 15:57:00,
2013-06-05 12:02:00,86.4,69.8,29.91,ESE,112,6.5,6.5,58,0.00,,---,0.00,VWS V14.00,2013-06-05 16:02:00,
2013-06-05 12:08:00,86.5,70.0,29.88,SE,135,5.6,7.4,58,0.00,,---,0.00,VWS V14.00,2013-06-05 16:08:00,
2013-06-05 12:13:00,86.7,69.7,29.88,ENE,68,7.8,8.1,57,0.00,,---,0.00,VWS V14.00,2013-06-05 16:13:00,
2013-06-05 12:18:00,86.7,70.2,29.88,East,90,4.9,4.9,58,0.00,,---,0.00,VWS V14.00,2013-06-05 16:18:00,
2013-06-05 12:23:00,86.9,69.8,29.88,NNE,22,3.1,4.9,57,0.00,,---,0.00,VWS V14.00,2013-06-05 16:23:00,
2013-06-05 12:28:00,87.1,68.4,29.88,SSE,158,3.6,5.8,54,0.00,,---,0.00,VWS V14.00,2013-06-05 16:28:00,
2013-06-05 12:33:00,87.3,70.2,29.88,ENE,68,4.0,7.4,57,0.00,,---,0.00,VWS V14.00,2013-06-05 16:33:00,
2013-06-05 12:38:00,87.6,68.9,29.88,ESE,112,8.5,8.5,54,0.00,,---,0.00,VWS V14.00,2013-06-05 16:38:00,
2013-06-05 12:43:00,87.8,68.0,29.88,ESE,112,3.4,4.7,52,0.00,,---,0.00,VWS V14.00,2013-06-05 16:43:00,
2013-06-05 12:48:00,88.0,69.3,29.88,SE,135,4.7,4.7,54,0.00,,---,0.00,VWS V14.00,2013-06-05 16:48:00,
2013-06-05 12:53:00,88.2,70.5,29.88,ESE,112,5.6,5.6,56,0.00,,---,0.00,VWS V14.00,2013-06-05 16:53:00,
2013-06-05 12:58:00,88.3,69.1,29.88,East,90,6.0,6.0,53,0.00,,---,0.00,VWS V14.00,2013-06-05 16:58:00,
2013-06-05 13:03:00,88.5,68.7,29.88,SE,135,4.3,5.6,52,0.00,,---,0.00,VWS V14.00,2013-06-05 17:03:00,
2013-06-05 13:08:00,88.9,69.0,29.88,ESE,112,6.0,6.0,52,0.00,,---,0.00,VWS V14.00,2013-06-05 17:08:00,
2013-06-05 13:13:00,89.2,68.8,29.88,SE,135,4.7,5.4,51,0.00,,---,0.00,VWS V14.00,2013-06-05 17:13:00,
2013-06-05 13:18:00,89.2,66.4,29.88,East,90,5.6,5.8,47,0.00,,---,0.00,VWS V14.00,2013-06-05 17:18:00,
2013-06-05 13:23:00,89.2,67.0,29.85,SSE,158,10.5,10.5,48,0.00,,---,0.00,VWS V14.00,2013-06-05 17:23:00,
2013-06-05 13:28:00,89.1,66.2,29.85,SE,135,4.3,6.0,47,0.00,,---,0.00,VWS V14.00,2013-06-05 17:28:00,
2013-06-05 13:33:00,89.2,67.6,29.85,East,90,5.6,7.2,49,0.00,,---,0.00,VWS V14.00,2013-06-05 17:33:00,
2013-06-05 13:38:00,89.6,68.5,29.85,SE,135,7.6,7.6,50,0.00,,---,0.00,VWS V14.00,2013-06-05 17:38:00,
2013-06-05 13:43:00,89.8,68.7,29.85,SSW,202,4.5,6.3,50,0.00,,---,0.00,VWS V14.00,2013-06-05 17:43:00,
2013-06-05 13:48:00,90.1,70.2,29.85,ENE,68,4.3,4.7,52,0.00,,---,0.00,VWS V14.00,2013-06-05 17:48:00,
2013-06-05 13:53:00,90.1,70.2,29.85,SE,135,6.5,6.5,52,0.00,,---,0.00,VWS V14.00,2013-06-05 17:53:00,
2013-06-05 13:58:00,90.3,67.4,29.85,ESE,112,5.6,5.6,47,0.00,,---,0.00,VWS V14.00,2013-06-05 17:58:00,
2013-06-05 14:03:00,90.1,68.4,29.85,SSE,158,6.3,7.4,49,0.00,,---,0.00,VWS V14.00,2013-06-05 18:03:00,
2013-06-05 14:08:00,90.0,68.2,29.85,SSE,158,3.8,6.5,49,0.00,,---,0.00,VWS V14.00,2013-06-05 18:08:00,
2013-06-05 14:13:00,89.6,68.5,29.85,SSE,158,5.4,5.4,50,0.00,,---,0.00,VWS V14.00,2013-06-05 18:13:00,
2013-06-05 14:18:00,89.4,68.9,29.85,SSE,158,6.3,6.3,51,0.00,,---,0.00,VWS V14.00,2013-06-05 18:18:00,
2013-06-05 14:23:00,89.4,68.3,29.85,SE,135,5.8,5.8,50,0.00,,---,0.00,VWS V14.00,2013-06-05 18:23:00,
2013-06-05 14:28:00,89.2,69.3,29.85,SE,135,6.5,6.5,52,0.00,,---,0.00,VWS V14.00,2013-06-05 18:28:00,
2013-06-05 14:33:00,89.1,70.3,29.85,SE,135,4.0,4.0,54,0.00,,---,0.00,VWS V14.00,2013-06-05 18:33:00,
2013-06-05 14:38:00,89.1,70.3,29.85,SSE,158,4.9,7.8,54,0.00,,---,0.00,VWS V14.00,2013-06-05 18:38:00,
2013-06-05 14:43:00,88.5,70.3,29.85,SSE,158,8.7,8.7,55,0.00,,---,0.00,VWS V14.00,2013-06-05 18:43:00,
2013-06-05 14:48:00,88.2,67.2,29.85,NNE,22,4.3,6.3,50,0.00,,---,0.00,VWS V14.00,2013-06-05 18:48:00,
2013-06-05 14:53:00,87.6,68.4,29.85,East,90,7.6,7.6,53,0.00,,---,0.00,VWS V14.00,2013-06-05 18:53:00,
2013-06-05 14:58:00,87.1,68.4,29.85,SSE,158,4.9,4.9,54,0.00,,---,0.00,VWS V14.00,2013-06-05 18:58:00,
2013-06-05 15:03:00,86.9,69.3,29.85,East,90,2.0,3.4,56,0.00,,---,0.00,VWS V14.00,2013-06-05 19:03:00,
2013-06-05 15:08:00,86.9,69.8,29.85,ESE,112,3.1,3.8,57,0.00,,---,0.00,VWS V14.00,2013-06-05 19:08:00,
2013-06-05 15:13:00,86.9,70.4,29.85,ESE,112,2.0,3.8,58,0.00,,---,0.00,VWS V14.00,2013-06-05 19:13:00,
2013-06-05 15:18:00,86.9,70.4,29.85,ESE,112,1.1,1.1,58,0.00,,---,0.00,VWS V14.00,2013-06-05 19:18:00,
2013-06-05 15:23:00,86.9,70.4,29.85,SSE,158,1.6,1.6,58,0.00,,---,0.00,VWS V14.00,2013-06-05 19:23:00,
2013-06-05 15:28:00,86.9,70.9,29.85,South,180,2.0,3.6,59,0.00,,---,0.00,VWS V14.00,2013-06-05 19:28:00,
2013-06-05 15:33:00,86.5,69.5,29.85,SSE,158,8.7,8.7,57,0.00,,---,0.00,VWS V14.00,2013-06-05 19:33:00,
2013-06-05 15:38:00,86.2,68.7,29.85,ESE,112,2.9,5.6,56,0.00,,---,0.00,VWS V14.00,2013-06-05 19:38:00,
2013-06-05 15:43:00,86.0,69.0,29.85,SE,135,6.5,7.6,57,0.00,,---,0.00,VWS V14.00,2013-06-05 19:43:00,
2013-06-05 15:48:00,86.0,69.0,29.85,ESE,112,3.1,6.3,57,0.00,,---,0.00,VWS V14.00,2013-06-05 19:48:00,
2013-06-05 15:53:00,85.8,69.3,29.85,ENE,68,10.3,10.3,58,0.00,,---,0.00,VWS V14.00,2013-06-05 19:53:00,
2013-06-05 15:58:00,85.8,69.3,29.85,SE,135,4.3,4.3,58,0.00,,---,0.00,VWS V14.00,2013-06-05 19:58:00,
2013-06-05 16:03:00,85.6,69.2,29.85,SSE,158,4.7,4.7,58,0.00,,---,0.00,VWS V14.00,2013-06-05 20:03:00,
2013-06-05 16:08:00,85.6,68.7,29.82,SE,135,9.8,9.8,57,0.00,,---,0.00,VWS V14.00,2013-06-05 20:08:00,
2013-06-05 16:13:00,85.5,69.0,29.82,SSE,158,9.2,9.2,58,0.00,,---,0.00,VWS V14.00,2013-06-05 20:13:00,
2013-06-05 16:18:00,85.3,68.8,29.82,East,90,5.8,7.6,58,0.00,,---,0.00,VWS V14.00,2013-06-05 20:18:00,
2013-06-05 16:23:00,85.1,68.7,29.82,ESE,112,5.4,5.8,58,0.00,,---,0.00,VWS V14.00,2013-06-05 20:23:00,
2013-06-05 16:28:00,85.1,69.2,29.82,East,90,2.5,2.5,59,0.00,,---,0.00,VWS V14.00,2013-06-05 20:28:00,
2013-06-05 16:33:00,84.9,69.0,29.82,ESE,112,6.5,6.5,59,0.00,,---,0.00,VWS V14.00,2013-06-05 20:33:00,
2013-06-05 16:38:00,84.7,69.8,29.82,South,180,5.8,5.8,61,0.00,,---,0.00,VWS V14.00,2013-06-05 20:38:00,
2013-06-05 16:43:00,84.7,69.8,29.82,ESE,112,3.6,3.6,61,0.00,,---,0.00,VWS V14.00,2013-06-05 20:43:00,
2013-06-05 16:48:00,84.6,69.6,29.82,SE,135,3.1,5.4,61,0.00,,---,0.00,VWS V14.00,2013-06-05 20:48:00,
2013-06-05 16:53:00,84.6,69.6,29.82,SE,135,5.6,5.6,61,0.00,,---,0.00,VWS V14.00,2013-06-05 20:53:00,
2013-06-05 16:58:00,84.6,69.6,29.82,SSE,158,6.0,6.0,61,0.00,,---,0.00,VWS V14.00,2013-06-05 20:58:00,
2013-06-05 17:03:00,84.4,69.5,29.82,East,90,4.9,4.9,61,0.00,,---,0.00,VWS V14.00,2013-06-05 21:03:00,
2013-06-05 17:08:00,84.0,68.7,29.82,SSE,158,8.1,8.1,60,0.00,,---,0.00,VWS V14.00,2013-06-05 21:08:00,
2013-06-05 17:13:00,83.7,67.8,29.82,SSE,158,5.6,5.6,59,0.00,,---,0.00,VWS V14.00,2013-06-05 21:13:00,
2013-06-05 17:18:00,83.5,68.2,29.82,ESE,112,7.4,7.4,60,0.00,,---,0.00,VWS V14.00,2013-06-05 21:18:00,
2013-06-05 17:23:00,83.5,68.2,29.82,SE,135,2.5,2.5,60,0.00,,---,0.00,VWS V14.00,2013-06-05 21:23:00,
2013-06-05 17:28:00,83.5,68.2,29.82,SE,135,2.7,2.7,60,0.00,,---,0.00,VWS V14.00,2013-06-05 21:28:00,
2013-06-05 17:33:00,83.5,68.6,29.82,SE,135,2.9,2.9,61,0.00,,---,0.00,VWS V14.00,2013-06-05 21:33:00,
2013-06-05 17:38:00,83.5,68.6,29.79,SE,135,3.1,4.9,61,0.00,,---,0.00,VWS V14.00,2013-06-05 21:38:00,
2013-06-05 17:43:00,83.3,68.5,29.79,SE,135,3.1,3.6,61,0.00,,---,0.00,VWS V14.00,2013-06-05 21:43:00,
2013-06-05 17:48:00,83.3,68.5,29.79,ESE,112,4.9,4.9,61,0.00,,---,0.00,VWS V14.00,2013-06-05 21:48:00,
2013-06-05 17:53:00,83.1,67.8,29.79,ENE,68,4.3,5.4,60,0.00,,---,0.00,VWS V14.00,2013-06-05 21:53:00,
2013-06-05 17:58:00,82.9,67.6,29.79,SE,135,2.7,2.7,60,0.00,,---,0.00,VWS V14.00,2013-06-05 21:58:00,
2013-06-05 18:03:00,82.8,67.5,29.79,SE,135,6.0,6.0,60,0.00,,---,0.00,VWS V14.00,2013-06-05 22:03:00,
2013-06-05 18:08:00,82.8,67.9,29.79,ESE,112,4.0,4.0,61,0.00,,---,0.00,VWS V14.00,2013-06-05 22:08:00,
2013-06-05 18:13:00,82.6,67.8,29.79,East,90,2.9,3.8,61,0.00,,---,0.00,VWS V14.00,2013-06-05 22:13:00,
2013-06-05 18:18:00,82.6,67.8,29.79,SE,135,3.6,3.6,61,0.00,,---,0.00,VWS V14.00,2013-06-05 22:18:00,
2013-06-05 18:23:00,82.6,67.8,29.79,ENE,68,2.5,2.5,61,0.00,,---,0.00,VWS V14.00,2013-06-05 22:23:00,
2013-06-05 18:28:00,82.4,68.1,29.79,ESE,112,4.9,4.9,62,0.00,,---,0.00,VWS V14.00,2013-06-05 22:28:00,
2013-06-05 18:33:00,82.4,68.1,29.79,East,90,3.1,3.1,62,0.00,,---,0.00,VWS V14.00,2013-06-05 22:33:00,
2013-06-05 18:38:00,82.4,68.1,29.79,ESE,112,4.7,4.7,62,0.00,,---,0.00,VWS V14.00,2013-06-05 22:38:00,
2013-06-05 18:43:00,82.2,68.4,29.79,East,90,4.3,4.3,63,0.00,,---,0.00,VWS V14.00,2013-06-05 22:43:00,
2013-06-05 18:48:00,82.2,68.4,29.79,ENE,68,2.5,2.5,63,0.00,,---,0.00,VWS V14.00,2013-06-05 22:48:00,
2013-06-05 18:53:00,82.0,68.2,29.79,ESE,112,2.9,3.4,63,0.00,,---,0.00,VWS V14.00,2013-06-05 22:53:00,
2013-06-05 18:58:00,82.0,68.7,29.79,East,90,4.0,4.0,64,0.00,,---,0.00,VWS V14.00,2013-06-05 22:58:00,
2013-06-05 19:03:00,81.9,68.5,29.79,East,90,5.4,5.4,64,0.00,,---,0.00,VWS V14.00,2013-06-05 23:03:00,
2013-06-05 19:08:00,81.7,68.8,29.79,ENE,68,3.4,3.6,65,0.00,,---,0.00,VWS V14.00,2013-06-05 23:08:00,
2013-06-05 19:13:00,81.7,68.3,29.79,East,90,4.3,4.9,64,0.00,,---,0.00,VWS V14.00,2013-06-05 23:13:00,
2013-06-05 19:18:00,81.5,68.2,29.79,East,90,3.4,3.6,64,0.00,,---,0.00,VWS V14.00,2013-06-05 23:18:00,
2013-06-05 19:23:00,81.5,68.6,29.79,East,90,4.0,7.8,65,0.00,,---,0.00,VWS V14.00,2013-06-05 23:23:00,
2013-06-05 19:28:00,81.3,68.0,29.79,East,90,3.6,3.6,64,0.00,,---,0.00,VWS V14.00,2013-06-05 23:28:00,
2013-06-05 19:33:00,81.3,68.4,29.79,East,90,3.1,4.0,65,0.00,,---,0.00,VWS V14.00,2013-06-05 23:33:00,
2013-06-05 19:38:00,81.1,68.3,29.79,East,90,2.0,2.7,65,0.00,,---,0.00,VWS V14.00,2013-06-05 23:38:00,
2013-06-05 19:43:00,81.1,67.8,29.79,ESE,112,1.3,3.4,64,0.00,,---,0.00,VWS V14.00,2013-06-05 23:43:00,
2013-06-05 19:48:00,81.0,68.1,29.79,East,90,2.7,6.5,65,0.00,,---,0.00,VWS V14.00,2013-06-05 23:48:00,
2013-06-05 19:53:00,81.0,68.1,29.79,ESE,112,4.0,4.0,65,0.00,,---,0.00,VWS V14.00,2013-06-05 23:53:00,
2013-06-05 19:58:00,80.8,67.9,29.79,East,90,2.2,2.9,65,0.00,,---,0.00,VWS V14.00,2013-06-05 23:58:00,
2013-06-05 20:03:00,80.8,67.9,29.79,SE,135,3.4,3.4,65,0.00,,---,0.00,VWS V14.00,2013-06-06 00:03:00,
2013-06-05 20:08:00,80.8,68.4,29.79,East,90,2.5,3.6,66,0.00,,---,0.00,VWS V14.00,2013-06-06 00:08:00,
2013-06-05 20:13:00,80.6,68.2,29.79,SE,135,3.8,3.8,66,0.00,,---,0.00,VWS V14.00,2013-06-06 00:13:00,
2013-06-05 20:18:00,80.6,68.2,29.79,East,90,1.6,2.9,66,0.00,,---,0.00,VWS V14.00,2013-06-06 00:18:00,
2013-06-05 20:23:00,80.6,68.2,29.79,ESE,112,2.0,2.0,66,0.00,,---,0.00,VWS V14.00,2013-06-06 00:23:00,
2013-06-05 20:28:00,80.4,68.0,29.79,ESE,112,2.0,2.0,66,0.00,,---,0.00,VWS V14.00,2013-06-06 00:28:00,
2013-06-05 20:33:00,80.4,68.0,29.79,ENE,68,2.9,2.9,66,0.00,,---,0.00,VWS V14.00,2013-06-06 00:33:00,
2013-06-05 20:38:00,80.2,67.9,29.82,SSE,158,3.1,3.1,66,0.00,,---,0.00,VWS V14.00,2013-06-06 00:38:00,
2013-06-05 20:43:00,80.2,68.7,29.82,ESE,112,2.7,2.9,68,0.00,,---,0.00,VWS V14.00,2013-06-06 00:43:00,
2013-06-05 20:48:00,80.2,68.7,29.82,East,90,2.7,4.3,68,0.00,,---,0.00,VWS V14.00,2013-06-06 00:48:00,
2013-06-05 20:53:00,80.1,69.0,29.79,ESE,112,4.9,4.9,69,0.00,,---,0.00,VWS V14.00,2013-06-06 00:53:00,
2013-06-05 20:58:00,80.1,68.6,29.79,East,90,2.9,2.9,68,0.00,,---,0.00,VWS V14.00,2013-06-06 00:58:00,
2013-06-05 21:03:00,80.1,69.0,29.79,ESE,112,1.1,1.6,69,0.00,,---,0.00,VWS V14.00,2013-06-06 01:03:00,
2013-06-05 21:08:00,79.9,68.4,29.79,East,90,2.5,2.5,68,0.00,,---,0.00,VWS V14.00,2013-06-06 01:08:00,
2013-06-05 21:13:00,79.9,68.8,29.79,ESE,112,1.3,1.6,69,0.00,,---,0.00,VWS V14.00,2013-06-06 01:13:00,
2013-06-05 21:18:00,79.7,68.2,29.79,East,90,2.0,2.0,68,0.00,,---,0.00,VWS V14.00,2013-06-06 01:18:00,
2013-06-05 21:23:00,79.7,68.2,29.79,East,90,2.9,2.9,68,0.00,,---,0.00,VWS V14.00,2013-06-06 01:23:00,
2013-06-05 21:28:00,79.7,68.2,29.79,SE,135,4.9,4.9,68,0.00,,---,0.00,VWS V14.00,2013-06-06 01:28:00,
2013-06-05 21:33:00,79.7,68.6,29.79,ESE,112,3.6,3.6,69,0.00,,---,0.00,VWS V14.00,2013-06-06 01:33:00,
2013-06-05 21:38:00,79.7,69.1,29.82,SE,135,2.5,2.5,70,0.00,,---,0.00,VWS V14.00,2013-06-06 01:38:00,
2013-06-05 21:43:00,79.7,69.9,29.82,ENE,68,2.5,4.3,72,0.00,,---,0.00,VWS V14.00,2013-06-06 01:43:00,
2013-06-05 21:48:00,79.7,69.9,29.82,ESE,112,2.7,2.7,72,0.00,,---,0.00,VWS V14.00,2013-06-06 01:48:00,
2013-06-05 21:53:00,79.5,69.7,29.79,East,90,2.2,2.5,72,0.00,,---,0.00,VWS V14.00,2013-06-06 01:53:00,
2013-06-05 21:58:00,79.5,70.1,29.79,NNE,22,7.6,7.6,73,0.00,,---,0.00,VWS V14.00,2013-06-06 01:58:00,
2013-06-05 22:03:00,79.5,70.5,29.79,NNE,22,3.4,6.5,74,0.00,,---,0.00,VWS V14.00,2013-06-06 02:03:00,
2013-06-05 22:08:00,79.3,69.5,29.79,East,90,3.4,3.4,72,0.00,,---,0.00,VWS V14.00,2013-06-06 02:08:00,
2013-06-05 22:14:00,79.2,69.8,29.79,SE,135,4.0,5.8,73,0.00,,---,0.00,VWS V14.00,2013-06-06 02:14:00,
2013-06-05 22:19:00,79.0,69.6,29.79,SE,135,6.3,6.3,73,0.00,,---,0.00,VWS V14.00,2013-06-06 02:19:00,
2013-06-05 22:24:00,78.6,69.2,29.82,SSE,158,5.8,5.8,73,0.00,,---,0.00,VWS V14.00,2013-06-06 02:24:00,
2013-06-05 22:29:00,78.4,69.1,29.82,SSE,158,4.3,4.3,73,0.00,,---,0.00,VWS V14.00,2013-06-06 02:29:00,
2013-06-05 22:34:00,78.4,68.7,29.82,ESE,112,2.0,3.4,72,0.00,,---,0.00,VWS V14.00,2013-06-06 02:34:00,
2013-06-05 22:40:00,78.3,68.5,29.79,ENE,68,2.7,4.9,72,0.00,,---,0.00,VWS V14.00,2013-06-06 02:40:00,
2013-06-05 22:45:00,78.1,69.1,29.79,ENE,68,3.6,3.6,74,0.00,,---,0.00,VWS V14.00,2013-06-06 02:45:00,
2013-06-05 22:51:00,77.9,68.9,29.79,ENE,68,5.4,5.4,74,0.00,,---,0.00,VWS V14.00,2013-06-06 02:51:00,
2013-06-05 22:57:00,77.7,69.2,29.79,ESE,112,4.3,5.8,75,0.00,,---,0.00,VWS V14.00,2013-06-06 02:57:00,
2013-06-05 23:02:00,77.7,69.2,29.79,ENE,68,5.4,5.4,75,0.00,,---,0.00,VWS V14.00,2013-06-06 03:02:00,
2013-06-05 23:08:00,77.5,69.0,29.79,ENE,68,6.0,6.0,75,0.00,,---,0.00,VWS V14.00,2013-06-06 03:08:00,
2013-06-05 23:13:00,77.4,69.2,29.79,East,90,8.5,8.5,76,0.00,,---,0.00,VWS V14.00,2013-06-06 03:13:00,
2013-06-05 23:18:00,77.4,69.6,29.79,ENE,68,6.3,6.3,77,0.00,,---,0.00,VWS V14.00,2013-06-06 03:18:00,
2013-06-05 23:23:00,77.2,69.0,29.79,East,90,8.5,8.5,76,0.00,,---,0.00,VWS V14.00,2013-06-06 03:23:00,
2013-06-05 23:28:00,77.2,69.4,29.79,ENE,68,4.9,4.9,77,0.00,,---,0.00,VWS V14.00,2013-06-06 03:28:00,
2013-06-05 23:34:00,77.2,69.8,29.79,NE,45,3.4,7.8,78,0.00,,---,0.00,VWS V14.00,2013-06-06 03:34:00,
2013-06-05 23:39:00,77.2,69.4,29.79,ESE,112,4.0,4.0,77,0.00,,---,0.00,VWS V14.00,2013-06-06 03:39:00,
2013-06-05 23:45:00,77.2,69.8,29.79,East,90,3.1,4.7,78,0.00,,---,0.00,VWS V14.00,2013-06-06 03:45:00,
2013-06-05 23:52:00,77.4,69.6,29.79,East,90,3.6,3.6,77,0.00,,---,0.00,VWS V14.00,2013-06-06 03:52:00,
2013-06-05 23:58:00,77.4,70.0,29.79,SSE,158,8.7,8.7,78,0.00,,---,0.00,VWS V14.00,2013-06-06 03:58:00,